Time;durP1;ratioP1;P1;durP2;ratioP2;P2;SDS_P1;SDS_P2;PMS_P1;PMS_P2;Temp;Humidity;BMP_temperature;BMP_pressure;BME280_temperature;BME280_humidity;BME280_pressure;Samples;Min_cycle;Max_cycle;Signal;HPM_P1;HPM_P2
2023/05/09 00:00:26;;;;;;;;;;;13.80;99.90;;;;;;4988664;28;20037;-78
2023/05/09 00:02:53;;;;;;;;;;;13.80;99.90;;;;;;4975427;28;20856;-79
2023/05/09 00:05:26;;;;;;;;;;;13.70;99.90;;;;;;4989946;28;19926;-79
2023/05/09 00:07:53;;;;;;;;;;;13.70;99.90;;;;;;4971438;28;19953;-78
2023/05/09 00:10:19;;;;;;;;;;;13.70;99.90;;;;;;4989195;28;19973;-79
2023/05/09 00:12:48;;;;;;;;;;;13.70;99.90;;;;;;4991590;28;20412;-79
2023/05/09 00:15:17;;;;;;;;;;;13.70;99.90;;;;;;4989305;28;19933;-78
2023/05/09 00:17:45;;;;;;;;;;;13.70;99.90;;;;;;4987569;28;19961;-79
2023/05/09 00:20:12;;;;;;;;;;;13.70;99.90;;;;;;4972088;28;19961;-79
2023/05/09 00:22:39;;;;;;;;;;;13.70;99.90;;;;;;4989924;28;19949;-78
2023/05/09 00:25:06;;;;;;;;;;;13.70;99.90;;;;;;4985033;28;19951;-75
2023/05/09 00:27:33;;;;;;;;;;;13.70;99.90;;;;;;4991067;28;19972;-78
2023/05/09 00:30:00;;;;;;;;;;;13.70;99.90;;;;;;4972692;28;19933;-78
2023/05/09 00:32:29;;;;;;;;;;;13.60;99.90;;;;;;4975079;28;20423;-79
2023/05/09 00:34:56;;;;;;;;;;;13.60;99.90;;;;;;4969180;28;19976;-79
2023/05/09 00:37:23;;;;;;;;;;;13.60;99.90;;;;;;4969930;28;19940;-78
2023/05/09 00:39:50;;;;;;;;;;;13.60;99.90;;;;;;4971686;28;20027;-78
2023/05/09 00:42:17;;;;;;;;;;;13.60;99.90;;;;;;4985315;28;19934;-79
2023/05/09 00:44:44;;;;;;;;;;;13.60;99.90;;;;;;4971040;28;20439;-78
2023/05/09 00:47:10;;;;;;;;;;;13.60;99.90;;;;;;4969445;28;19957;-78
2023/05/09 00:49:39;;;;;;;;;;;13.60;99.90;;;;;;4970842;28;21995;-78
2023/05/09 00:52:06;;;;;;;;;;;13.50;99.90;;;;;;4966406;28;19926;-78
2023/05/09 00:54:33;;;;;;;;;;;13.60;99.90;;;;;;4970613;28;19926;-77
2023/05/09 00:57:00;;;;;;;;;;;13.50;99.90;;;;;;4987375;28;19965;-78
2023/05/09 00:59:27;;;;;;;;;;;13.50;99.90;;;;;;4966117;28;19969;-78
2023/05/09 01:01:54;;;;;;;;;;;13.50;99.90;;;;;;4965602;28;19926;-77
2023/05/09 01:04:21;;;;;;;;;;;13.40;99.90;;;;;;4972576;28;20396;-77
2023/05/09 01:06:55;;;;;;;;;;;13.50;99.90;;;;;;4987310;28;19926;-77
2023/05/09 01:09:24;;;;;;;;;;;13.40;99.90;;;;;;4981676;28;19934;-77
2023/05/09 01:11:58;;;;;;;;;;;13.40;99.90;;;;;;4960866;28;19926;-77
2023/05/09 01:14:29;;;;;;;;;;;13.40;99.90;;;;;;4984579;28;20022;-77
2023/05/09 01:17:02;;;;;;;;;;;13.40;99.90;;;;;;4971863;28;19934;-77
2023/05/09 01:19:37;;;;;;;;;;;13.40;99.90;;;;;;4962305;28;19934;-77
2023/05/09 01:22:07;;;;;;;;;;;13.40;99.90;;;;;;4970489;28;19926;-77
2023/05/09 01:24:46;;;;;;;;;;;13.40;99.90;;;;;;4987222;28;19926;-77
2023/05/09 01:27:22;;;;;;;;;;;13.30;99.90;;;;;;4987669;28;20016;-77
2023/05/09 01:29:51;;;;;;;;;;;13.30;99.90;;;;;;4982581;28;20407;-78
2023/05/09 01:32:20;;;;;;;;;;;13.30;99.90;;;;;;4971086;28;20464;-77
2023/05/09 01:34:49;;;;;;;;;;;13.30;99.90;;;;;;4968089;28;19961;-76
2023/05/09 01:37:18;;;;;;;;;;;13.30;99.90;;;;;;4985777;28;20012;-77
2023/05/09 01:39:48;;;;;;;;;;;13.30;99.90;;;;;;4971476;28;19933;-78
2023/05/09 01:42:15;;;;;;;;;;;13.30;99.90;;;;;;4972278;28;19933;-77
2023/05/09 01:44:43;;;;;;;;;;;13.20;99.90;;;;;;4983552;28;19936;-77
2023/05/09 01:47:11;;;;;;;;;;;13.20;99.90;;;;;;4988296;28;19933;-77
2023/05/09 01:49:40;;;;;;;;;;;13.20;99.90;;;;;;4983486;28;20368;-76
2023/05/09 01:52:08;;;;;;;;;;;13.20;99.90;;;;;;4975199;28;20020;-77
2023/05/09 01:54:35;;;;;;;;;;;13.20;99.90;;;;;;4978989;28;20360;-77
2023/05/09 01:57:03;;;;;;;;;;;13.20;99.90;;;;;;4984776;28;19934;-76
2023/05/09 01:59:31;;;;;;;;;;;13.10;99.90;;;;;;4967251;28;19972;-77
2023/05/09 02:01:58;;;;;;;;;;;13.10;99.90;;;;;;4966867;28;19974;-77
2023/05/09 02:04:28;;;;;;;;;;;13.10;99.90;;;;;;4981211;28;20024;-77
2023/05/09 02:06:56;;;;;;;;;;;13.10;99.90;;;;;;4978347;28;19961;-77
2023/05/09 02:09:24;;;;;;;;;;;13.10;99.90;;;;;;4981431;28;20420;-76
2023/05/09 02:11:51;;;;;;;;;;;13.10;99.90;;;;;;4973053;28;19950;-76
2023/05/09 02:14:18;;;;;;;;;;;13.10;99.90;;;;;;4988298;28;19925;-77
2023/05/09 02:16:48;;;;;;;;;;;13.10;99.90;;;;;;4970357;28;20515;-77
2023/05/09 02:19:15;;;;;;;;;;;13.10;99.90;;;;;;4985692;28;19980;-77
2023/05/09 02:21:43;;;;;;;;;;;13.00;99.90;;;;;;4985278;28;20090;-77
2023/05/09 02:24:10;;;;;;;;;;;13.00;99.90;;;;;;4969304;28;20311;-77
2023/05/09 02:26:38;;;;;;;;;;;13.00;99.90;;;;;;4964570;28;19936;-76
2023/05/09 02:29:06;;;;;;;;;;;13.00;99.90;;;;;;4968345;28;19932;-77
2023/05/09 02:31:34;;;;;;;;;;;13.00;99.90;;;;;;4968647;28;20682;-77
2023/05/09 02:34:02;;;;;;;;;;;12.90;99.90;;;;;;4988257;28;19925;-77
2023/05/09 02:36:29;;;;;;;;;;;13.00;99.90;;;;;;4981539;28;19926;-77
2023/05/09 02:38:57;;;;;;;;;;;12.90;99.90;;;;;;4970930;28;20006;-77
2023/05/09 02:41:26;;;;;;;;;;;12.90;99.90;;;;;;4970142;28;19944;-77
2023/05/09 02:43:54;;;;;;;;;;;12.90;99.90;;;;;;4964635;28;19961;-77
2023/05/09 02:46:23;;;;;;;;;;;12.90;99.90;;;;;;4968879;28;19980;-77
2023/05/09 02:48:50;;;;;;;;;;;12.90;99.90;;;;;;4975617;28;19926;-76
2023/05/09 02:51:17;;;;;;;;;;;12.90;99.90;;;;;;4968038;28;20440;-77
2023/05/09 02:53:44;;;;;;;;;;;12.90;99.90;;;;;;4967161;28;19934;-77
2023/05/09 02:56:13;;;;;;;;;;;12.90;99.90;;;;;;4968470;28;19929;-77
2023/05/09 02:58:39;;;;;;;;;;;12.80;99.90;;;;;;4985880;28;19937;-77
2023/05/09 03:01:06;;;;;;;;;;;12.80;99.90;;;;;;4967791;28;19961;-77
2023/05/09 03:03:33;;;;;;;;;;;12.90;99.90;;;;;;4981016;28;19930;-77
2023/05/09 03:08:45;;;;;;;;;;;12.80;99.90;;;;;;4965930;28;19936;-77
2023/05/09 03:11:14;;;;;;;;;;;12.80;99.90;;;;;;4969938;28;19984;-77
2023/05/09 03:13:41;;;;;;;;;;;12.80;99.90;;;;;;4969383;28;20351;-76
2023/05/09 03:16:10;;;;;;;;;;;12.80;99.90;;;;;;4982400;28;20372;-76
2023/05/09 03:18:37;;;;;;;;;;;12.80;99.90;;;;;;4982802;28;19940;-77
2023/05/09 03:21:04;;;;;;;;;;;12.80;99.90;;;;;;4967744;28;20596;-77
2023/05/09 03:23:32;;;;;;;;;;;12.70;99.90;;;;;;4983942;28;19933;-77
2023/05/09 03:25:59;;;;;;;;;;;12.70;99.90;;;;;;4985910;28;20024;-76
2023/05/09 03:28:27;;;;;;;;;;;12.70;99.90;;;;;;4968804;28;19963;-77
2023/05/09 03:30:55;;;;;;;;;;;12.70;99.90;;;;;;4968362;28;19992;-76
2023/05/09 03:33:25;;;;;;;;;;;12.70;99.90;;;;;;4968980;28;20054;-77
2023/05/09 03:35:52;;;;;;;;;;;12.70;99.90;;;;;;4965971;28;20335;-77
2023/05/09 03:38:19;;;;;;;;;;;12.70;99.90;;;;;;4968204;28;19925;-76
2023/05/09 03:40:46;;;;;;;;;;;12.70;99.90;;;;;;4972096;28;20547;-77
2023/05/09 03:43:13;;;;;;;;;;;12.70;99.90;;;;;;4989550;28;19930;-77
2023/05/09 03:45:41;;;;;;;;;;;12.70;99.90;;;;;;4970596;28;20021;-77
2023/05/09 03:48:10;;;;;;;;;;;12.70;99.90;;;;;;4966718;28;19934;-76
2023/05/09 03:50:42;;;;;;;;;;;12.60;99.90;;;;;;4968075;28;19940;-77
2023/05/09 03:53:09;;;;;;;;;;;12.60;99.90;;;;;;4970785;28;19925;-77
2023/05/09 03:55:37;;;;;;;;;;;12.70;99.90;;;;;;4964313;28;19980;-77
2023/05/09 03:58:04;;;;;;;;;;;12.60;99.90;;;;;;4969254;28;19933;-76
2023/05/09 04:00:32;;;;;;;;;;;12.60;99.90;;;;;;4971566;28;20462;-77
2023/05/09 04:03:08;;;;;;;;;;;12.60;99.90;;;;;;4968095;28;19976;-77
2023/05/09 04:05:40;;;;;;;;;;;12.60;99.90;;;;;;4985408;28;19930;-77
2023/05/09 04:08:11;;;;;;;;;;;12.60;99.90;;;;;;4958216;28;20388;-77
2023/05/09 04:10:38;;;;;;;;;;;12.60;99.90;;;;;;4962532;28;19945;-77
2023/05/09 04:13:06;;;;;;;;;;;12.60;99.90;;;;;;4979766;28;19930;-77
2023/05/09 04:15:34;;;;;;;;;;;12.60;99.90;;;;;;4965491;28;20016;-76
2023/05/09 04:18:02;;;;;;;;;;;12.60;99.90;;;;;;4986315;28;19934;-77
2023/05/09 04:20:30;;;;;;;;;;;12.60;99.90;;;;;;4963068;28;19925;-77
2023/05/09 04:22:58;;;;;;;;;;;12.60;99.90;;;;;;4972657;28;19932;-79
2023/05/09 04:25:26;;;;;;;;;;;12.50;99.90;;;;;;4972771;28;19933;-81
2023/05/09 04:27:53;;;;;;;;;;;12.60;99.90;;;;;;4965058;28;19933;-78
2023/05/09 04:30:20;;;;;;;;;;;12.50;99.90;;;;;;4985525;28;19960;-78
2023/05/09 04:32:48;;;;;;;;;;;12.50;99.90;;;;;;4967923;28;19961;-78
2023/05/09 04:35:16;;;;;;;;;;;12.50;99.90;;;;;;4964903;28;19926;-77
2023/05/09 04:37:47;;;;;;;;;;;12.50;99.90;;;;;;4984796;28;19926;-77
2023/05/09 04:40:14;;;;;;;;;;;12.50;99.90;;;;;;4975724;28;20073;-79
2023/05/09 04:42:52;;;;;;;;;;;12.50;99.90;;;;;;4965961;28;20044;-77
2023/05/09 04:45:22;;;;;;;;;;;12.50;99.90;;;;;;4970258;28;20016;-78
2023/05/09 04:47:49;;;;;;;;;;;12.50;99.90;;;;;;4989829;28;19965;-79
2023/05/09 04:50:16;;;;;;;;;;;12.50;99.90;;;;;;4980834;28;20388;-78
2023/05/09 04:52:43;;;;;;;;;;;12.50;99.90;;;;;;4973297;28;20020;-77
2023/05/09 04:55:11;;;;;;;;;;;12.50;99.90;;;;;;4968125;28;19941;-77
2023/05/09 04:57:43;;;;;;;;;;;12.50;99.90;;;;;;4966669;28;19972;-79
2023/05/09 05:00:11;;;;;;;;;;;12.50;99.90;;;;;;4989400;28;20388;-78
2023/05/09 05:02:38;;;;;;;;;;;12.50;99.90;;;;;;4984982;28;20588;-77
2023/05/09 05:05:06;;;;;;;;;;;12.40;99.90;;;;;;4957643;28;19989;-79
2023/05/09 05:07:36;;;;;;;;;;;12.40;99.90;;;;;;4989305;28;19957;-78
2023/05/09 05:10:05;;;;;;;;;;;12.40;99.90;;;;;;4970270;28;20090;-82
2023/05/09 05:12:33;;;;;;;;;;;12.40;99.90;;;;;;4982742;28;19932;-78
2023/05/09 05:15:00;;;;;;;;;;;12.40;99.90;;;;;;4984237;28;19937;-84
2023/05/09 05:17:29;;;;;;;;;;;12.40;99.90;;;;;;4970734;28;20320;-78
2023/05/09 05:20:00;;;;;;;;;;;12.40;99.90;;;;;;4976253;28;19930;-77
2023/05/09 05:22:30;;;;;;;;;;;12.40;99.90;;;;;;4985997;28;19953;-78
2023/05/09 05:24:57;;;;;;;;;;;12.40;99.90;;;;;;4987734;28;19930;-78
2023/05/09 05:27:24;;;;;;;;;;;12.40;99.90;;;;;;4965665;28;19934;-77
2023/05/09 05:29:52;;;;;;;;;;;12.40;99.90;;;;;;4982591;28;20407;-77
2023/05/09 05:32:19;;;;;;;;;;;12.40;99.90;;;;;;4962000;28;19988;-77
2023/05/09 05:34:46;;;;;;;;;;;12.40;99.90;;;;;;4956170;28;19925;-77
2023/05/09 05:37:14;;;;;;;;;;;12.40;99.90;;;;;;4979859;28;19926;-77
2023/05/09 05:39:42;;;;;;;;;;;12.40;99.90;;;;;;4987743;28;19932;-77
2023/05/09 05:42:09;;;;;;;;;;;12.40;99.90;;;;;;4966621;28;19929;-77
2023/05/09 05:44:37;;;;;;;;;;;12.40;99.90;;;;;;4983135;28;20400;-77
2023/05/09 05:47:08;;;;;;;;;;;12.40;99.90;;;;;;4967199;28;19949;-77
2023/05/09 05:49:38;;;;;;;;;;;12.40;99.90;;;;;;4972041;28;20014;-76
2023/05/09 05:52:08;;;;;;;;;;;12.40;99.90;;;;;;4967620;28;19932;-77
2023/05/09 05:54:36;;;;;;;;;;;12.40;99.90;;;;;;4986530;28;19934;-77
2023/05/09 05:57:08;;;;;;;;;;;12.40;99.90;;;;;;4968304;28;19926;-77
2023/05/09 05:59:36;;;;;;;;;;;12.30;99.90;;;;;;4973300;28;19967;-76
2023/05/09 06:02:03;;;;;;;;;;;12.40;99.90;;;;;;4983010;28;20281;-77
2023/05/09 06:04:32;;;;;;;;;;;12.40;99.90;;;;;;4972599;28;20005;-77
2023/05/09 06:06:59;;;;;;;;;;;12.40;99.90;;;;;;4974529;28;20008;-77
2023/05/09 06:09:26;;;;;;;;;;;12.40;99.90;;;;;;4986437;28;19934;-77
2023/05/09 06:11:57;;;;;;;;;;;12.40;99.90;;;;;;4989174;28;19933;-77
2023/05/09 06:14:29;;;;;;;;;;;12.30;99.90;;;;;;4971172;28;20408;-77
2023/05/09 06:16:56;;;;;;;;;;;12.40;99.90;;;;;;4984503;28;19949;-77
2023/05/09 06:19:23;;;;;;;;;;;12.40;99.90;;;;;;4981905;28;22816;-77
2023/05/09 06:21:54;;;;;;;;;;;12.40;99.90;;;;;;4989487;28;19941;-77
2023/05/09 06:24:21;;;;;;;;;;;12.40;99.90;;;;;;4969839;28;19930;-76
2023/05/09 06:26:49;;;;;;;;;;;12.40;99.90;;;;;;4986353;28;19980;-78
2023/05/09 06:29:16;;;;;;;;;;;12.40;99.90;;;;;;4986698;28;20346;-78
2023/05/09 06:31:43;;;;;;;;;;;12.40;99.90;;;;;;4970150;28;19941;-77
2023/05/09 06:34:11;;;;;;;;;;;12.40;99.90;;;;;;4973039;28;19930;-77
2023/05/09 06:36:38;;;;;;;;;;;12.40;99.90;;;;;;4979619;28;19944;-77
2023/05/09 06:39:06;;;;;;;;;;;12.40;99.90;;;;;;4969670;28;19973;-78
2023/05/09 06:41:33;;;;;;;;;;;12.40;99.90;;;;;;4977992;28;20356;-77
2023/05/09 06:44:01;;;;;;;;;;;12.40;99.90;;;;;;4985033;28;19926;-77
2023/05/09 06:46:28;;;;;;;;;;;12.40;99.90;;;;;;4991173;28;19926;-77
2023/05/09 06:48:56;;;;;;;;;;;12.40;99.90;;;;;;4986217;28;19961;-77
2023/05/09 06:51:23;;;;;;;;;;;12.40;99.90;;;;;;4988151;28;20012;-77
2023/05/09 06:53:50;;;;;;;;;;;12.50;99.90;;;;;;4986831;28;20467;-77
2023/05/09 06:56:20;;;;;;;;;;;12.50;99.90;;;;;;4990251;28;19936;-76
2023/05/09 06:58:50;;;;;;;;;;;12.50;99.90;;;;;;4989119;28;19957;-77
2023/05/09 07:01:17;;;;;;;;;;;12.50;99.90;;;;;;4991037;28;19926;-77
2023/05/09 07:03:46;;;;;;;;;;;12.50;99.90;;;;;;4987940;28;19937;-77
2023/05/09 07:06:13;;;;;;;;;;;12.50;99.90;;;;;;4990659;28;20008;-77
2023/05/09 07:08:40;;;;;;;;;;;12.60;99.90;;;;;;4971061;28;19988;-77
2023/05/09 07:11:07;;;;;;;;;;;12.60;99.90;;;;;;4970992;28;20009;-77
2023/05/09 07:13:36;;;;;;;;;;;12.60;99.90;;;;;;4990322;28;19936;-77
2023/05/09 07:16:06;;;;;;;;;;;12.60;99.90;;;;;;4990405;28;19933;-77
2023/05/09 07:18:33;;;;;;;;;;;12.60;99.90;;;;;;4968379;28;19949;-77
2023/05/09 07:21:00;;;;;;;;;;;12.70;99.90;;;;;;4989417;28;19973;-77
2023/05/09 07:23:27;;;;;;;;;;;12.70;99.90;;;;;;4974330;28;20455;-76
2023/05/09 07:25:57;;;;;;;;;;;12.70;99.90;;;;;;4990532;28;19926;-77
2023/05/09 07:28:24;;;;;;;;;;;12.70;99.90;;;;;;4968703;28;19961;-77
2023/05/09 07:30:52;;;;;;;;;;;12.80;99.90;;;;;;4989111;28;20284;-77
2023/05/09 07:33:19;;;;;;;;;;;12.80;99.90;;;;;;4968455;28;19964;-78
2023/05/09 07:35:46;;;;;;;;;;;12.80;99.90;;;;;;4974422;28;20753;-77
2023/05/09 07:38:13;;;;;;;;;;;12.80;99.90;;;;;;4966947;28;20399;-77
2023/05/09 07:40:40;;;;;;;;;;;12.80;99.90;;;;;;4984564;28;19933;-77
2023/05/09 07:43:07;;;;;;;;;;;12.90;99.90;;;;;;4988096;28;19933;-77
2023/05/09 07:45:35;;;;;;;;;;;12.90;99.90;;;;;;4990347;28;19980;-77
2023/05/09 07:48:03;;;;;;;;;;;12.90;99.90;;;;;;4969171;28;19934;-77
2023/05/09 07:50:30;;;;;;;;;;;12.90;99.90;;;;;;4972449;28;19953;-77
2023/05/09 07:52:58;;;;;;;;;;;12.90;99.90;;;;;;4985061;28;19932;-77
2023/05/09 07:55:25;;;;;;;;;;;12.90;99.90;;;;;;4986863;28;19926;-77
2023/05/09 07:57:52;;;;;;;;;;;13.00;99.90;;;;;;4985199;28;19937;-77
2023/05/09 08:00:22;;;;;;;;;;;13.00;99.90;;;;;;4989263;28;19926;-77
2023/05/09 08:02:52;;;;;;;;;;;13.00;99.90;;;;;;4987506;28;19930;-77
2023/05/09 08:05:20;;;;;;;;;;;13.00;99.90;;;;;;4986788;28;19926;-77
2023/05/09 08:07:47;;;;;;;;;;;13.00;99.90;;;;;;4983795;28;19937;-77
2023/05/09 08:10:15;;;;;;;;;;;13.00;99.90;;;;;;4989291;28;19926;-77
2023/05/09 08:12:42;;;;;;;;;;;13.10;99.90;;;;;;4980478;28;19929;-78
2023/05/09 08:15:10;;;;;;;;;;;13.10;99.90;;;;;;4988642;28;19925;-77
2023/05/09 08:17:36;;;;;;;;;;;13.10;99.90;;;;;;4987853;28;19933;-76
2023/05/09 08:20:05;;;;;;;;;;;13.10;99.90;;;;;;4974220;28;19972;-77
2023/05/09 08:22:33;;;;;;;;;;;13.10;99.90;;;;;;4973732;28;20000;-77
2023/05/09 08:25:03;;;;;;;;;;;13.10;99.90;;;;;;4987026;28;20675;-77
2023/05/09 08:27:30;;;;;;;;;;;13.10;99.90;;;;;;4985754;28;19934;-77
2023/05/09 08:29:57;;;;;;;;;;;13.20;99.90;;;;;;4968500;28;20388;-76
2023/05/09 08:32:23;;;;;;;;;;;13.20;99.90;;;;;;4985550;28;19936;-77
2023/05/09 08:34:51;;;;;;;;;;;13.20;99.90;;;;;;4988876;28;19934;-77
2023/05/09 08:37:18;;;;;;;;;;;13.20;99.90;;;;;;4986311;28;20021;-77
2023/05/09 08:39:46;;;;;;;;;;;13.30;99.90;;;;;;4965841;28;19925;-77
2023/05/09 08:42:17;;;;;;;;;;;13.30;99.90;;;;;;4984946;28;20000;-77
2023/05/09 08:44:44;;;;;;;;;;;13.30;99.90;;;;;;4969630;28;19932;-77
2023/05/09 08:47:11;;;;;;;;;;;13.30;99.90;;;;;;4987597;28;19937;-76
2023/05/09 08:49:38;;;;;;;;;;;13.30;99.90;;;;;;4987347;28;20451;-77
2023/05/09 08:52:05;;;;;;;;;;;13.30;99.90;;;;;;4985857;28;19926;-76
2023/05/09 08:54:33;;;;;;;;;;;13.30;99.90;;;;;;4973237;28;19929;-77
2023/05/09 08:57:02;;;;;;;;;;;13.40;99.90;;;;;;4974562;28;19981;-77
2023/05/09 08:59:33;;;;;;;;;;;13.40;99.90;;;;;;4982937;28;19929;-77
2023/05/09 09:02:01;;;;;;;;;;;13.40;99.90;;;;;;4988434;28;19974;-77
2023/05/09 09:04:28;;;;;;;;;;;13.40;99.90;;;;;;4982884;28;19930;-77
2023/05/09 09:06:55;;;;;;;;;;;13.40;99.90;;;;;;4988533;28;20459;-77
2023/05/09 09:09:22;;;;;;;;;;;13.50;99.90;;;;;;4982073;28;20363;-77
2023/05/09 09:11:49;;;;;;;;;;;13.50;99.90;;;;;;4986238;28;20351;-77
2023/05/09 09:14:21;;;;;;;;;;;13.50;99.90;;;;;;4983427;28;20380;-76
2023/05/09 09:16:49;;;;;;;;;;;13.50;99.90;;;;;;4989477;28;20021;-76
2023/05/09 09:19:17;;;;;;;;;;;13.50;99.90;;;;;;4982036;28;19926;-77
2023/05/09 09:21:45;;;;;;;;;;;13.50;99.90;;;;;;4970128;28;20020;-77
2023/05/09 09:24:13;;;;;;;;;;;13.60;99.90;;;;;;4986941;28;20390;-77
2023/05/09 09:26:45;;;;;;;;;;;13.60;99.90;;;;;;4992484;28;20358;-77
2023/05/09 09:29:12;;;;;;;;;;;13.60;99.90;;;;;;4986407;28;20490;-77
2023/05/09 09:31:44;;;;;;;;;;;13.60;99.90;;;;;;4986240;28;20419;-77
2023/05/09 09:34:10;;;;;;;;;;;13.60;99.90;;;;;;4972584;28;19926;-77
2023/05/09 09:36:37;;;;;;;;;;;13.70;99.90;;;;;;4991774;28;20356;-77
2023/05/09 09:39:05;;;;;;;;;;;13.70;99.90;;;;;;4988074;28;19926;-78
2023/05/09 09:41:32;;;;;;;;;;;13.70;99.90;;;;;;4992765;28;19992;-77
2023/05/09 09:44:02;;;;;;;;;;;13.70;99.90;;;;;;4990830;28;19926;-77
2023/05/09 09:46:30;;;;;;;;;;;13.70;99.90;;;;;;4988771;28;20665;-77
2023/05/09 09:48:59;;;;;;;;;;;13.70;99.90;;;;;;4987255;28;19933;-77
2023/05/09 09:51:27;;;;;;;;;;;13.80;99.90;;;;;;4973110;28;19929;-77
2023/05/09 09:53:55;;;;;;;;;;;13.80;99.90;;;;;;4989117;28;20009;-77
2023/05/09 09:56:22;;;;;;;;;;;13.80;99.90;;;;;;4986988;28;19938;-77
2023/05/09 09:58:49;;;;;;;;;;;13.80;99.90;;;;;;4989651;28;19925;-77
2023/05/09 10:01:19;;;;;;;;;;;13.80;99.90;;;;;;4990832;28;20411;-77
2023/05/09 10:03:47;;;;;;;;;;;13.80;99.90;;;;;;4992450;28;20446;-77
2023/05/09 10:06:18;;;;;;;;;;;13.90;99.90;;;;;;4988434;28;20024;-77
2023/05/09 10:08:47;;;;;;;;;;;13.90;99.90;;;;;;4989651;28;19925;-77
2023/05/09 10:11:15;;;;;;;;;;;14.00;99.90;;;;;;4992162;28;20000;-76
2023/05/09 10:13:43;;;;;;;;;;;14.00;99.90;;;;;;4986022;28;20016;-77
2023/05/09 10:16:12;;;;;;;;;;;14.00;99.90;;;;;;4971019;28;19925;-77
2023/05/09 10:18:42;;;;;;;;;;;14.00;99.90;;;;;;4987997;28;20005;-77
2023/05/09 10:21:14;;;;;;;;;;;14.00;99.90;;;;;;4991578;28;19984;-77
2023/05/09 10:23:45;;;;;;;;;;;14.00;99.90;;;;;;4988388;28;20441;-76
2023/05/09 10:26:16;;;;;;;;;;;14.10;99.90;;;;;;4987908;28;19933;-77
2023/05/09 10:28:45;;;;;;;;;;;14.10;99.90;;;;;;4990749;28;19980;-77
2023/05/09 10:31:14;;;;;;;;;;;14.10;99.90;;;;;;4971887;28;19944;-77
2023/05/09 10:33:43;;;;;;;;;;;14.10;99.90;;;;;;4989630;28;19929;-77
2023/05/09 10:36:11;;;;;;;;;;;14.10;99.90;;;;;;4971569;28;19956;-77
2023/05/09 10:38:38;;;;;;;;;;;14.20;99.90;;;;;;4975225;28;19930;-77
2023/05/09 10:41:07;;;;;;;;;;;14.20;99.90;;;;;;4966866;28;19948;-76
2023/05/09 10:43:35;;;;;;;;;;;14.30;99.90;;;;;;4960613;28;20020;-78
2023/05/09 10:46:02;;;;;;;;;;;14.50;99.90;;;;;;4985098;28;19930;-78
2023/05/09 10:48:29;;;;;;;;;;;14.60;99.90;;;;;;4981369;28;19957;-78
2023/05/09 10:50:57;;;;;;;;;;;14.60;99.90;;;;;;4987393;28;20036;-77
2023/05/09 10:53:40;;;;;;;;;;;14.60;99.90;;;;;;4981775;28;19926;-78
2023/05/09 10:56:08;;;;;;;;;;;14.60;99.90;;;;;;4987960;28;19934;-78
2023/05/09 10:58:37;;;;;;;;;;;14.50;99.90;;;;;;4981516;28;20017;-77
2023/05/09 11:01:07;;;;;;;;;;;14.60;99.90;;;;;;4971258;28;19933;-76
2023/05/09 11:03:52;;;;;;;;;;;14.60;99.90;;;;;;4978124;28;20156;-77
2023/05/09 11:06:34;;;;;;;;;;;14.60;99.90;;;;;;4982945;28;20217;-76
2023/05/09 11:09:23;;;;;;;;;;;14.60;99.90;;;;;;4964161;28;19933;-76
2023/05/09 11:11:55;;;;;;;;;;;14.70;99.90;;;;;;4985197;28;20013;-78
2023/05/09 11:14:29;;;;;;;;;;;14.70;99.90;;;;;;4968449;28;19934;-77
2023/05/09 11:16:57;;;;;;;;;;;14.70;99.90;;;;;;4962644;28;20012;-78
2023/05/09 11:19:33;;;;;;;;;;;14.70;99.90;;;;;;4980004;28;19933;-78
2023/05/09 11:22:02;;;;;;;;;;;14.80;99.90;;;;;;4958269;28;20000;-77
2023/05/09 11:24:31;;;;;;;;;;;14.80;99.90;;;;;;4976006;28;19946;-77
2023/05/09 11:27:00;;;;;;;;;;;14.80;99.90;;;;;;4988205;28;19930;-77
2023/05/09 11:29:30;;;;;;;;;;;14.80;99.90;;;;;;4968338;28;20565;-77
2023/05/09 11:32:06;;;;;;;;;;;14.90;99.90;;;;;;4984148;28;19933;-77
2023/05/09 11:34:34;;;;;;;;;;;14.90;99.90;;;;;;4980659;28;19925;-78
2023/05/09 11:37:09;;;;;;;;;;;14.90;99.90;;;;;;4963860;28;19984;-78
2023/05/09 11:39:58;;;;;;;;;;;14.90;99.90;;;;;;4978504;28;20611;-78
2023/05/09 11:42:30;;;;;;;;;;;14.90;99.90;;;;;;4981826;28;19965;-77
2023/05/09 11:45:04;;;;;;;;;;;15.00;99.90;;;;;;4982598;28;19933;-76
2023/05/09 11:47:37;;;;;;;;;;;15.00;99.90;;;;;;4965838;28;19962;-80
2023/05/09 11:50:08;;;;;;;;;;;15.00;99.90;;;;;;4985334;28;19930;-78
2023/05/09 11:52:36;;;;;;;;;;;15.10;99.90;;;;;;4965941;28;19925;-79
2023/05/09 11:55:03;;;;;;;;;;;15.10;99.90;;;;;;4972170;28;19926;-77
2023/05/09 11:57:31;;;;;;;;;;;15.20;99.90;;;;;;4987005;28;20456;-78
2023/05/09 12:00:00;;;;;;;;;;;15.20;99.90;;;;;;4985013;28;19933;-82
2023/05/09 12:02:27;;;;;;;;;;;15.20;99.90;;;;;;4983499;28;19932;-79
2023/05/09 12:04:54;;;;;;;;;;;15.20;99.90;;;;;;4985501;28;20145;-78
2023/05/09 12:07:22;;;;;;;;;;;15.30;99.90;;;;;;4971984;28;19977;-79
2023/05/09 12:09:52;;;;;;;;;;;15.30;99.90;;;;;;4987108;28;19926;-83
2023/05/09 12:12:20;;;;;;;;;;;15.40;99.90;;;;;;4968603;28;20031;-79
2023/05/09 12:14:49;;;;;;;;;;;15.40;99.90;;;;;;4980794;28;20016;-79
2023/05/09 12:17:15;;;;;;;;;;;15.40;99.90;;;;;;4966050;28;19933;-76
2023/05/09 12:19:44;;;;;;;;;;;15.40;99.90;;;;;;4977517;28;19933;-76
2023/05/09 12:22:11;;;;;;;;;;;15.40;99.90;;;;;;4985367;28;19973;-77
2023/05/09 12:24:37;;;;;;;;;;;15.50;99.90;;;;;;4965369;28;19926;-77
2023/05/09 12:27:06;;;;;;;;;;;15.50;99.90;;;;;;4984239;28;19960;-77
2023/05/09 12:29:33;;;;;;;;;;;15.50;99.90;;;;;;4962139;28;19989;-77
2023/05/09 12:32:02;;;;;;;;;;;15.50;99.90;;;;;;4985811;28;19925;-77
2023/05/09 12:34:29;;;;;;;;;;;15.60;99.90;;;;;;4981934;28;19934;-78
2023/05/09 12:36:58;;;;;;;;;;;15.60;99.90;;;;;;4984992;28;19933;-77
2023/05/09 12:39:25;;;;;;;;;;;15.60;99.90;;;;;;4960695;28;19930;-77
2023/05/09 12:41:52;;;;;;;;;;;15.70;99.90;;;;;;4982216;28;19984;-77
2023/05/09 12:44:21;;;;;;;;;;;15.80;99.90;;;;;;4980331;28;19952;-77
2023/05/09 12:46:58;;;;;;;;;;;15.80;99.90;;;;;;4982171;28;19932;-77
2023/05/09 12:49:26;;;;;;;;;;;15.80;99.90;;;;;;4975744;28;19934;-77
2023/05/09 12:51:54;;;;;;;;;;;15.90;99.90;;;;;;4979134;28;20319;-77
2023/05/09 12:54:22;;;;;;;;;;;15.90;99.90;;;;;;4964945;28;20155;-77
2023/05/09 12:56:51;;;;;;;;;;;15.90;99.90;;;;;;4978207;28;19934;-77
2023/05/09 12:59:20;;;;;;;;;;;16.00;99.90;;;;;;4981925;28;19934;-77
2023/05/09 13:01:51;;;;;;;;;;;16.10;99.90;;;;;;4984623;28;19926;-77
2023/05/09 13:04:19;;;;;;;;;;;16.10;99.90;;;;;;4977718;28;19961;-76
2023/05/09 13:06:51;;;;;;;;;;;16.20;99.90;;;;;;4983601;28;20131;-77
2023/05/09 13:09:18;;;;;;;;;;;16.20;99.90;;;;;;4966109;28;19981;-77
2023/05/09 13:11:45;;;;;;;;;;;16.30;99.90;;;;;;4964116;28;19964;-80
2023/05/09 13:14:12;;;;;;;;;;;16.30;99.90;;;;;;4979701;28;20307;-77
2023/05/09 13:16:39;;;;;;;;;;;16.30;99.90;;;;;;4966184;28;19938;-78
2023/05/09 13:19:07;;;;;;;;;;;16.40;99.90;;;;;;4966020;28;19934;-78
2023/05/09 13:21:34;;;;;;;;;;;16.40;99.90;;;;;;4961445;28;19945;-77
2023/05/09 13:24:03;;;;;;;;;;;16.40;99.90;;;;;;4975923;28;19929;-77
2023/05/09 13:26:32;;;;;;;;;;;16.50;99.90;;;;;;4977052;28;20436;-76
2023/05/09 13:28:59;;;;;;;;;;;16.50;99.90;;;;;;4977419;28;19965;-77
2023/05/09 13:31:27;;;;;;;;;;;16.80;99.90;;;;;;4981216;28;19929;-79
2023/05/09 13:33:54;;;;;;;;;;;17.00;99.90;;;;;;4978241;28;19934;-80
2023/05/09 13:36:20;;;;;;;;;;;17.10;99.90;;;;;;4983435;28;19933;-76
2023/05/09 13:38:47;;;;;;;;;;;17.60;99.90;;;;;;4977316;28;19933;-76
2023/05/09 13:41:19;;;;;;;;;;;;;;;;;;4968154;28;19930;-75
2023/05/09 13:43:48;;;;;;;;;;;;;;;;;;4977871;28;20403;-77
2023/05/09 13:46:17;;;;;;;;;;;17.90;99.90;;;;;;4967151;28;19926;-77
2023/05/09 13:48:44;;;;;;;;;;;17.80;99.90;;;;;;4976668;28;19941;-78
2023/05/09 13:51:10;;;;;;;;;;;17.60;99.90;;;;;;4979728;28;19934;-78
2023/05/09 13:53:37;;;;;;;;;;;17.50;99.90;;;;;;4981077;28;19940;-77
2023/05/09 13:56:05;;;;;;;;;;;17.40;99.90;;;;;;4975048;28;20403;-79
2023/05/09 13:58:32;;;;;;;;;;;17.50;99.90;;;;;;4977707;28;19934;-77
2023/05/09 14:00:59;;;;;;;;;;;17.50;99.90;;;;;;4978398;28;19930;-77
2023/05/09 14:03:27;;;;;;;;;;;17.50;99.90;;;;;;4971207;28;20555;-75
2023/05/09 14:05:54;;;;;;;;;;;17.60;99.90;;;;;;4972669;28;20779;-77
2023/05/09 14:08:21;;;;;;;;;;;17.70;99.90;;;;;;4969435;28;19926;-75
2023/05/09 14:10:48;;;;;;;;;;;17.60;99.90;;;;;;4971060;28;19930;-77
2023/05/09 14:13:15;;;;;;;;;;;17.60;99.90;;;;;;4989386;28;19968;-79
2023/05/09 14:15:42;;;;;;;;;;;17.60;99.90;;;;;;4975982;28;19957;-78
2023/05/09 14:18:09;;;;;;;;;;;17.70;99.90;;;;;;4987597;28;19934;-78
2023/05/09 14:20:39;;;;;;;;;;;17.70;99.90;;;;;;4992037;28;19940;-78
2023/05/09 14:23:06;;;;;;;;;;;17.70;99.90;;;;;;4976273;28;19934;-78
2023/05/09 14:25:33;;;;;;;;;;;17.70;99.90;;;;;;4974734;28;19930;-78
2023/05/09 14:28:00;;;;;;;;;;;17.70;99.90;;;;;;4987586;28;19933;-77